sensor_id;sensor_type;location;lat;lon;timestamp;P1;durP1;ratioP1;P2;durP2;ratioP2
6997;SDS011;3539;47.982;12.238;2023-04-22T00:02:17;4.17;;;3.77;;
6997;SDS011;3539;47.982;12.238;2023-04-22T00:04:44;3.93;;;3.60;;
6997;SDS011;3539;47.982;12.238;2023-04-22T00:07:11;4.10;;;3.67;;
6997;SDS011;3539;47.982;12.238;2023-04-22T00:09:38;4.27;;;3.57;;
6997;SDS011;3539;47.982;12.238;2023-04-22T00:12:05;4.27;;;3.70;;
6997;SDS011;3539;47.982;12.238;2023-04-22T00:14:33;3.80;;;3.50;;
6997;SDS011;3539;47.982;12.238;2023-04-22T00:17:00;4.03;;;3.63;;
6997;SDS011;3539;47.982;12.238;2023-04-22T00:19:27;4.80;;;3.93;;
6997;SDS011;3539;47.982;12.238;2023-04-22T00:21:54;4.43;;;4.03;;
6997;SDS011;3539;47.982;12.238;2023-04-22T00:24:21;4.57;;;4.17;;
6997;SDS011;3539;47.982;12.238;2023-04-22T00:26:48;4.40;;;4.00;;
6997;SDS011;3539;47.982;12.238;2023-04-22T00:29:15;4.83;;;4.13;;
6997;SDS011;3539;47.982;12.238;2023-04-22T00:31:43;5.00;;;4.30;;
6997;SDS011;3539;47.982;12.238;2023-04-22T00:34:10;6.60;;;4.70;;
6997;SDS011;3539;47.982;12.238;2023-04-22T00:36:36;5.33;;;4.83;;
6997;SDS011;3539;47.982;12.238;2023-04-22T00:39:03;4.57;;;4.17;;
6997;SDS011;3539;47.982;12.238;2023-04-22T00:41:30;4.63;;;4.20;;
6997;SDS011;3539;47.982;12.238;2023-04-22T00:43:57;4.47;;;3.77;;
6997;SDS011;3539;47.982;12.238;2023-04-22T00:46:25;4.20;;;3.70;;
6997;SDS011;3539;47.982;12.238;2023-04-22T00:48:53;4.27;;;3.87;;
6997;SDS011;3539;47.982;12.238;2023-04-22T00:51:20;4.60;;;4.13;;
6997;SDS011;3539;47.982;12.238;2023-04-22T00:53:47;4.13;;;3.73;;
6997;SDS011;3539;47.982;12.238;2023-04-22T00:56:14;4.37;;;3.97;;
6997;SDS011;3539;47.982;12.238;2023-04-22T00:58:41;4.23;;;3.83;;
6997;SDS011;3539;47.982;12.238;2023-04-22T01:01:07;4.13;;;3.73;;
6997;SDS011;3539;47.982;12.238;2023-04-22T01:03:34;3.50;;;3.20;;
6997;SDS011;3539;47.982;12.238;2023-04-22T01:06:04;4.03;;;3.63;;
6997;SDS011;3539;47.982;12.238;2023-04-22T01:08:30;4.57;;;4.10;;
6997;SDS011;3539;47.982;12.238;2023-04-22T01:10:57;4.23;;;3.83;;
6997;SDS011;3539;47.982;12.238;2023-04-22T01:13:25;5.73;;;4.20;;
6997;SDS011;3539;47.982;12.238;2023-04-22T01:15:52;3.97;;;3.57;;
6997;SDS011;3539;47.982;12.238;2023-04-22T01:18:19;4.30;;;3.80;;
6997;SDS011;3539;47.982;12.238;2023-04-22T01:20:45;5.17;;;3.97;;
6997;SDS011;3539;47.982;12.238;2023-04-22T01:23:14;4.33;;;3.93;;
6997;SDS011;3539;47.982;12.238;2023-04-22T01:25:43;3.97;;;3.57;;
6997;SDS011;3539;47.982;12.238;2023-04-22T01:28:09;3.73;;;3.43;;
6997;SDS011;3539;47.982;12.238;2023-04-22T01:30:37;4.10;;;3.77;;
6997;SDS011;3539;47.982;12.238;2023-04-22T01:33:04;4.77;;;3.90;;
6997;SDS011;3539;47.982;12.238;2023-04-22T01:35:31;4.73;;;4.23;;
6997;SDS011;3539;47.982;12.238;2023-04-22T01:38:01;4.43;;;4.03;;
6997;SDS011;3539;47.982;12.238;2023-04-22T01:40:30;4.80;;;4.30;;
6997;SDS011;3539;47.982;12.238;2023-04-22T01:42:57;5.40;;;4.37;;
6997;SDS011;3539;47.982;12.238;2023-04-22T01:45:24;4.20;;;3.80;;
6997;SDS011;3539;47.982;12.238;2023-04-22T01:47:51;5.07;;;3.73;;
6997;SDS011;3539;47.982;12.238;2023-04-22T01:50:18;4.17;;;3.80;;
6997;SDS011;3539;47.982;12.238;2023-04-22T01:52:45;4.37;;;3.93;;
6997;SDS011;3539;47.982;12.238;2023-04-22T01:55:12;3.87;;;3.50;;
6997;SDS011;3539;47.982;12.238;2023-04-22T01:57:40;4.37;;;3.97;;
6997;SDS011;3539;47.982;12.238;2023-04-22T02:00:08;4.40;;;4.00;;
6997;SDS011;3539;47.982;12.238;2023-04-22T02:02:35;4.93;;;4.43;;
6997;SDS011;3539;47.982;12.238;2023-04-22T02:05:02;4.87;;;3.87;;
6997;SDS011;3539;47.982;12.238;2023-04-22T02:07:29;4.33;;;3.93;;
6997;SDS011;3539;47.982;12.238;2023-04-22T02:09:56;4.13;;;3.70;;
6997;SDS011;3539;47.982;12.238;2023-04-22T02:12:23;4.33;;;3.93;;
6997;SDS011;3539;47.982;12.238;2023-04-22T02:14:51;4.00;;;3.70;;
6997;SDS011;3539;47.982;12.238;2023-04-22T02:17:18;4.13;;;3.83;;
6997;SDS011;3539;47.982;12.238;2023-04-22T02:19:46;4.33;;;3.90;;
6997;SDS011;3539;47.982;12.238;2023-04-22T02:22:13;4.90;;;4.30;;
6997;SDS011;3539;47.982;12.238;2023-04-22T02:24:39;4.30;;;3.90;;
6997;SDS011;3539;47.982;12.238;2023-04-22T02:27:07;4.07;;;3.67;;
6997;SDS011;3539;47.982;12.238;2023-04-22T02:29:34;4.00;;;3.70;;
6997;SDS011;3539;47.982;12.238;2023-04-22T02:32:02;4.90;;;4.03;;
6997;SDS011;3539;47.982;12.238;2023-04-22T02:34:29;4.10;;;3.40;;
6997;SDS011;3539;47.982;12.238;2023-04-22T02:36:56;4.37;;;3.60;;
6997;SDS011;3539;47.982;12.238;2023-04-22T02:39:23;4.33;;;3.80;;
6997;SDS011;3539;47.982;12.238;2023-04-22T02:41:50;5.23;;;3.97;;
6997;SDS011;3539;47.982;12.238;2023-04-22T02:44:17;4.27;;;3.33;;
6997;SDS011;3539;47.982;12.238;2023-04-22T02:46:44;4.00;;;3.60;;
6997;SDS011;3539;47.982;12.238;2023-04-22T02:49:12;4.27;;;3.90;;
6997;SDS011;3539;47.982;12.238;2023-04-22T02:51:38;3.80;;;3.50;;
6997;SDS011;3539;47.982;12.238;2023-04-22T02:54:05;3.73;;;3.43;;
6997;SDS011;3539;47.982;12.238;2023-04-22T02:56:32;3.93;;;3.57;;
6997;SDS011;3539;47.982;12.238;2023-04-22T02:58:59;3.70;;;3.40;;
6997;SDS011;3539;47.982;12.238;2023-04-22T03:01:25;4.20;;;3.70;;
6997;SDS011;3539;47.982;12.238;2023-04-22T03:03:52;4.23;;;3.83;;
6997;SDS011;3539;47.982;12.238;2023-04-22T03:06:20;4.37;;;3.97;;
6997;SDS011;3539;47.982;12.238;2023-04-22T03:08:47;4.87;;;4.40;;
6997;SDS011;3539;47.982;12.238;2023-04-22T03:11:14;5.40;;;4.80;;
6997;SDS011;3539;47.982;12.238;2023-04-22T03:13:41;4.57;;;4.10;;
6997;SDS011;3539;47.982;12.238;2023-04-22T03:16:08;4.83;;;4.33;;
6997;SDS011;3539;47.982;12.238;2023-04-22T03:18:35;5.07;;;4.50;;
6997;SDS011;3539;47.982;12.238;2023-04-22T03:21:02;4.90;;;4.40;;
6997;SDS011;3539;47.982;12.238;2023-04-22T03:23:30;5.10;;;4.37;;
6997;SDS011;3539;47.982;12.238;2023-04-22T03:25:57;4.43;;;4.03;;
6997;SDS011;3539;47.982;12.238;2023-04-22T03:28:24;5.30;;;4.37;;
6997;SDS011;3539;47.982;12.238;2023-04-22T03:30:51;5.57;;;4.40;;
6997;SDS011;3539;47.982;12.238;2023-04-22T03:33:17;4.27;;;3.87;;
6997;SDS011;3539;47.982;12.238;2023-04-22T03:35:46;5.07;;;4.57;;
6997;SDS011;3539;47.982;12.238;2023-04-22T03:38:13;4.80;;;4.10;;
6997;SDS011;3539;47.982;12.238;2023-04-22T03:40:41;4.40;;;4.00;;
6997;SDS011;3539;47.982;12.238;2023-04-22T03:43:08;4.03;;;3.73;;
6997;SDS011;3539;47.982;12.238;2023-04-22T03:45:35;4.43;;;4.03;;
6997;SDS011;3539;47.982;12.238;2023-04-22T03:48:02;4.20;;;3.80;;
6997;SDS011;3539;47.982;12.238;2023-04-22T03:50:29;3.57;;;3.27;;
6997;SDS011;3539;47.982;12.238;2023-04-22T03:52:55;4.63;;;3.67;;
6997;SDS011;3539;47.982;12.238;2023-04-22T03:55:22;4.90;;;3.80;;
6997;SDS011;3539;47.982;12.238;2023-04-22T03:57:50;4.13;;;3.67;;
6997;SDS011;3539;47.982;12.238;2023-04-22T04:00:17;4.73;;;4.23;;
6997;SDS011;3539;47.982;12.238;2023-04-22T04:02:44;4.40;;;4.00;;
6997;SDS011;3539;47.982;12.238;2023-04-22T04:05:10;4.67;;;3.73;;
6997;SDS011;3539;47.982;12.238;2023-04-22T04:07:37;5.13;;;4.30;;
6997;SDS011;3539;47.982;12.238;2023-04-22T04:10:05;4.23;;;3.83;;
6997;SDS011;3539;47.982;12.238;2023-04-22T04:12:33;4.23;;;3.53;;
6997;SDS011;3539;47.982;12.238;2023-04-22T04:15:01;4.23;;;3.83;;
6997;SDS011;3539;47.982;12.238;2023-04-22T04:17:28;4.53;;;4.07;;
6997;SDS011;3539;47.982;12.238;2023-04-22T04:19:54;4.20;;;3.80;;
6997;SDS011;3539;47.982;12.238;2023-04-22T04:22:21;4.17;;;3.77;;
6997;SDS011;3539;47.982;12.238;2023-04-22T04:24:48;4.60;;;3.70;;
6997;SDS011;3539;47.982;12.238;2023-04-22T04:27:16;4.27;;;3.60;;
6997;SDS011;3539;47.982;12.238;2023-04-22T04:29:43;4.03;;;3.63;;
6997;SDS011;3539;47.982;12.238;2023-04-22T04:32:11;4.13;;;3.73;;
6997;SDS011;3539;47.982;12.238;2023-04-22T04:34:38;4.90;;;3.63;;
6997;SDS011;3539;47.982;12.238;2023-04-22T04:37:06;4.03;;;3.30;;
6997;SDS011;3539;47.982;12.238;2023-04-22T04:39:33;3.87;;;3.30;;
6997;SDS011;3539;47.982;12.238;2023-04-22T04:42:00;4.23;;;3.83;;
6997;SDS011;3539;47.982;12.238;2023-04-22T04:44:26;3.90;;;3.50;;
6997;SDS011;3539;47.982;12.238;2023-04-22T04:46:55;4.67;;;3.80;;
6997;SDS011;3539;47.982;12.238;2023-04-22T04:49:24;4.37;;;3.97;;
6997;SDS011;3539;47.982;12.238;2023-04-22T04:51:51;4.83;;;3.90;;
6997;SDS011;3539;47.982;12.238;2023-04-22T04:54:18;4.93;;;4.50;;
6997;SDS011;3539;47.982;12.238;2023-04-22T04:56:44;5.60;;;5.10;;
6997;SDS011;3539;47.982;12.238;2023-04-22T04:59:11;10.53;;;7.07;;
6997;SDS011;3539;47.982;12.238;2023-04-22T05:01:38;8.80;;;6.80;;
6997;SDS011;3539;47.982;12.238;2023-04-22T05:04:05;7.93;;;6.17;;
6997;SDS011;3539;47.982;12.238;2023-04-22T05:06:33;5.53;;;5.03;;
6997;SDS011;3539;47.982;12.238;2023-04-22T05:09:00;6.73;;;4.77;;
6997;SDS011;3539;47.982;12.238;2023-04-22T05:11:27;4.77;;;4.00;;
6997;SDS011;3539;47.982;12.238;2023-04-22T05:13:53;5.10;;;4.53;;
6997;SDS011;3539;47.982;12.238;2023-04-22T05:16:20;4.30;;;3.90;;
6997;SDS011;3539;47.982;12.238;2023-04-22T05:18:47;4.30;;;3.83;;
6997;SDS011;3539;47.982;12.238;2023-04-22T05:21:14;4.17;;;3.70;;
6997;SDS011;3539;47.982;12.238;2023-04-22T05:23:42;4.13;;;3.60;;
6997;SDS011;3539;47.982;12.238;2023-04-22T05:26:09;4.63;;;4.13;;
6997;SDS011;3539;47.982;12.238;2023-04-22T05:28:36;4.97;;;4.00;;
6997;SDS011;3539;47.982;12.238;2023-04-22T05:31:02;4.13;;;3.60;;
6997;SDS011;3539;47.982;12.238;2023-04-22T05:33:30;4.13;;;3.73;;
6997;SDS011;3539;47.982;12.238;2023-04-22T05:35:57;4.47;;;4.07;;
6997;SDS011;3539;47.982;12.238;2023-04-22T05:38:24;6.40;;;4.10;;
6997;SDS011;3539;47.982;12.238;2023-04-22T05:40:52;4.40;;;3.73;;
6997;SDS011;3539;47.982;12.238;2023-04-22T05:43:19;4.80;;;4.30;;
6997;SDS011;3539;47.982;12.238;2023-04-22T05:45:46;5.03;;;4.53;;
6997;SDS011;3539;47.982;12.238;2023-04-22T05:48:13;5.73;;;4.93;;
6997;SDS011;3539;47.982;12.238;2023-04-22T05:50:42;6.27;;;5.00;;
6997;SDS011;3539;47.982;12.238;2023-04-22T05:53:09;7.87;;;5.00;;
6997;SDS011;3539;47.982;12.238;2023-04-22T05:55:36;8.10;;;5.87;;
6997;SDS011;3539;47.982;12.238;2023-04-22T05:58:04;6.53;;;5.83;;
6997;SDS011;3539;47.982;12.238;2023-04-22T06:00:31;6.20;;;5.60;;
6997;SDS011;3539;47.982;12.238;2023-04-22T06:02:57;5.60;;;4.97;;
6997;SDS011;3539;47.982;12.238;2023-04-22T06:05:24;6.70;;;5.20;;
6997;SDS011;3539;47.982;12.238;2023-04-22T06:07:51;5.40;;;4.90;;
6997;SDS011;3539;47.982;12.238;2023-04-22T06:10:18;5.47;;;4.97;;
6997;SDS011;3539;47.982;12.238;2023-04-22T06:12:44;6.23;;;5.30;;
6997;SDS011;3539;47.982;12.238;2023-04-22T06:15:13;5.37;;;4.83;;
6997;SDS011;3539;47.982;12.238;2023-04-22T06:17:39;5.37;;;4.83;;
6997;SDS011;3539;47.982;12.238;2023-04-22T06:20:09;5.07;;;4.57;;
6997;SDS011;3539;47.982;12.238;2023-04-22T06:22:36;5.33;;;4.00;;
6997;SDS011;3539;47.982;12.238;2023-04-22T06:25:03;4.73;;;4.23;;
6997;SDS011;3539;47.982;12.238;2023-04-22T06:27:31;3.73;;;3.43;;
6997;SDS011;3539;47.982;12.238;2023-04-22T06:29:59;3.73;;;3.43;;
6997;SDS011;3539;47.982;12.238;2023-04-22T06:32:52;4.10;;;3.70;;
6997;SDS011;3539;47.982;12.238;2023-04-22T06:35:20;8.13;;;6.80;;
6997;SDS011;3539;47.982;12.238;2023-04-22T06:37:47;4.73;;;4.03;;
6997;SDS011;3539;47.982;12.238;2023-04-22T06:40:14;3.10;;;2.80;;
6997;SDS011;3539;47.982;12.238;2023-04-22T06:42:41;3.60;;;3.30;;
6997;SDS011;3539;47.982;12.238;2023-04-22T06:45:08;3.33;;;3.03;;
6997;SDS011;3539;47.982;12.238;2023-04-22T06:47:37;3.10;;;2.80;;
6997;SDS011;3539;47.982;12.238;2023-04-22T06:50:06;2.90;;;2.70;;
6997;SDS011;3539;47.982;12.238;2023-04-22T06:52:33;2.70;;;2.50;;
6997;SDS011;3539;47.982;12.238;2023-04-22T06:55:00;3.10;;;2.60;;
6997;SDS011;3539;47.982;12.238;2023-04-22T06:57:27;2.50;;;2.30;;
6997;SDS011;3539;47.982;12.238;2023-04-22T06:59:54;2.70;;;2.40;;
6997;SDS011;3539;47.982;12.238;2023-04-22T07:02:21;2.47;;;2.27;;
6997;SDS011;3539;47.982;12.238;2023-04-22T07:04:48;2.23;;;2.03;;
6997;SDS011;3539;47.982;12.238;2023-04-22T07:07:16;3.20;;;2.20;;
6997;SDS011;3539;47.982;12.238;2023-04-22T07:09:43;2.20;;;2.00;;
6997;SDS011;3539;47.982;12.238;2023-04-22T07:12:10;2.47;;;1.90;;
6997;SDS011;3539;47.982;12.238;2023-04-22T07:14:37;1.83;;;1.73;;
6997;SDS011;3539;47.982;12.238;2023-04-22T07:17:05;1.80;;;1.70;;
6997;SDS011;3539;47.982;12.238;2023-04-22T07:19:32;1.80;;;1.70;;
6997;SDS011;3539;47.982;12.238;2023-04-22T07:21:59;2.53;;;2.10;;
6997;SDS011;3539;47.982;12.238;2023-04-22T07:24:28;2.17;;;1.97;;
6997;SDS011;3539;47.982;12.238;2023-04-22T07:26:55;2.53;;;1.93;;
6997;SDS011;3539;47.982;12.238;2023-04-22T07:29:22;3.13;;;2.10;;
6997;SDS011;3539;47.982;12.238;2023-04-22T07:31:49;3.67;;;2.90;;
6997;SDS011;3539;47.982;12.238;2023-04-22T07:34:16;3.97;;;2.40;;
6997;SDS011;3539;47.982;12.238;2023-04-22T07:36:43;2.40;;;2.20;;
6997;SDS011;3539;47.982;12.238;2023-04-22T07:39:10;2.50;;;2.30;;
6997;SDS011;3539;47.982;12.238;2023-04-22T07:41:38;2.57;;;2.13;;
6997;SDS011;3539;47.982;12.238;2023-04-22T07:44:05;2.33;;;2.10;;
6997;SDS011;3539;47.982;12.238;2023-04-22T07:46:32;2.10;;;1.90;;
6997;SDS011;3539;47.982;12.238;2023-04-22T07:48:59;2.30;;;2.10;;
6997;SDS011;3539;47.982;12.238;2023-04-22T07:51:26;8.80;;;4.03;;
6997;SDS011;3539;47.982;12.238;2023-04-22T07:53:53;2.63;;;2.20;;
6997;SDS011;3539;47.982;12.238;2023-04-22T07:56:19;2.00;;;1.80;;
6997;SDS011;3539;47.982;12.238;2023-04-22T07:58:48;1.77;;;1.67;;
6997;SDS011;3539;47.982;12.238;2023-04-22T08:01:15;2.10;;;1.80;;
6997;SDS011;3539;47.982;12.238;2023-04-22T08:03:42;4.10;;;1.70;;
6997;SDS011;3539;47.982;12.238;2023-04-22T08:06:09;2.53;;;1.60;;
6997;SDS011;3539;47.982;12.238;2023-04-22T08:08:36;1.60;;;1.50;;
6997;SDS011;3539;47.982;12.238;2023-04-22T08:11:03;2.27;;;2.07;;
6997;SDS011;3539;47.982;12.238;2023-04-22T08:13:30;1.70;;;1.57;;
6997;SDS011;3539;47.982;12.238;2023-04-22T08:15:59;2.80;;;1.70;;
6997;SDS011;3539;47.982;12.238;2023-04-22T08:18:27;1.90;;;1.40;;
6997;SDS011;3539;47.982;12.238;2023-04-22T08:20:53;2.17;;;1.50;;
6997;SDS011;3539;47.982;12.238;2023-04-22T08:23:20;1.50;;;1.40;;
6997;SDS011;3539;47.982;12.238;2023-04-22T08:25:47;1.73;;;1.30;;
6997;SDS011;3539;47.982;12.238;2023-04-22T08:28:16;1.50;;;1.40;;
6997;SDS011;3539;47.982;12.238;2023-04-22T08:30:43;1.70;;;1.60;;
6997;SDS011;3539;47.982;12.238;2023-04-22T08:33:12;2.40;;;1.70;;
6997;SDS011;3539;47.982;12.238;2023-04-22T08:35:39;4.83;;;2.33;;
6997;SDS011;3539;47.982;12.238;2023-04-22T08:38:06;11.80;;;2.73;;
6997;SDS011;3539;47.982;12.238;2023-04-22T08:40:33;57.43;;;16.00;;
6997;SDS011;3539;47.982;12.238;2023-04-22T08:43:00;2.50;;;2.27;;
6997;SDS011;3539;47.982;12.238;2023-04-22T08:45:27;16.20;;;4.83;;
6997;SDS011;3539;47.982;12.238;2023-04-22T08:47:55;10.13;;;3.73;;
6997;SDS011;3539;47.982;12.238;2023-04-22T08:50:23;7.57;;;3.43;;
6997;SDS011;3539;47.982;12.238;2023-04-22T08:52:50;2.53;;;1.70;;
6997;SDS011;3539;47.982;12.238;2023-04-22T08:55:17;1.60;;;1.50;;
6997;SDS011;3539;47.982;12.238;2023-04-22T08:57:44;4.03;;;1.47;;
6997;SDS011;3539;47.982;12.238;2023-04-22T09:00:12;2.00;;;1.57;;
6997;SDS011;3539;47.982;12.238;2023-04-22T09:02:40;2.08;;;1.40;;
6997;SDS011;3539;47.982;12.238;2023-04-22T09:05:09;1.87;;;1.30;;
6997;SDS011;3539;47.982;12.238;2023-04-22T09:07:37;1.20;;;1.10;;
6997;SDS011;3539;47.982;12.238;2023-04-22T09:10:05;1.60;;;1.13;;
6997;SDS011;3539;47.982;12.238;2023-04-22T09:12:33;1.10;;;1.10;;
6997;SDS011;3539;47.982;12.238;2023-04-22T09:14:59;1.37;;;1.27;;
6997;SDS011;3539;47.982;12.238;2023-04-22T09:17:29;2.10;;;1.37;;
6997;SDS011;3539;47.982;12.238;2023-04-22T09:19:56;1.33;;;1.23;;
6997;SDS011;3539;47.982;12.238;2023-04-22T09:22:24;3.30;;;1.50;;
6997;SDS011;3539;47.982;12.238;2023-04-22T09:24:53;2.20;;;1.20;;
6997;SDS011;3539;47.982;12.238;2023-04-22T09:27:22;1.27;;;1.17;;
6997;SDS011;3539;47.982;12.238;2023-04-22T09:29:50;1.20;;;1.10;;
6997;SDS011;3539;47.982;12.238;2023-04-22T09:32:17;1.20;;;1.10;;
6997;SDS011;3539;47.982;12.238;2023-04-22T09:34:48;1.33;;;1.20;;
6997;SDS011;3539;47.982;12.238;2023-04-22T09:37:17;1.23;;;1.10;;
6997;SDS011;3539;47.982;12.238;2023-04-22T09:39:48;1.20;;;1.10;;
6997;SDS011;3539;47.982;12.238;2023-04-22T09:42:16;2.43;;;0.90;;
6997;SDS011;3539;47.982;12.238;2023-04-22T09:44:43;3.63;;;1.17;;
6997;SDS011;3539;47.982;12.238;2023-04-22T09:47:11;0.80;;;0.80;;
6997;SDS011;3539;47.982;12.238;2023-04-22T09:49:38;1.87;;;0.80;;
6997;SDS011;3539;47.982;12.238;2023-04-22T09:52:05;2.63;;;1.20;;
6997;SDS011;3539;47.982;12.238;2023-04-22T09:54:32;2.00;;;1.17;;
6997;SDS011;3539;47.982;12.238;2023-04-22T09:56:59;0.97;;;0.90;;
6997;SDS011;3539;47.982;12.238;2023-04-22T09:59:28;2.23;;;1.20;;
6997;SDS011;3539;47.982;12.238;2023-04-22T10:01:57;0.97;;;0.93;;
6997;SDS011;3539;47.982;12.238;2023-04-22T10:04:24;2.53;;;1.40;;
6997;SDS011;3539;47.982;12.238;2023-04-22T10:06:52;1.20;;;1.10;;
6997;SDS011;3539;47.982;12.238;2023-04-22T10:09:20;2.10;;;1.00;;
6997;SDS011;3539;47.982;12.238;2023-04-22T10:11:48;2.47;;;2.00;;
6997;SDS011;3539;47.982;12.238;2023-04-22T10:14:16;1.63;;;1.20;;
6997;SDS011;3539;47.982;12.238;2023-04-22T10:16:45;0.90;;;0.90;;
6997;SDS011;3539;47.982;12.238;2023-04-22T10:19:13;1.00;;;1.00;;
6997;SDS011;3539;47.982;12.238;2023-04-22T10:21:43;1.57;;;0.97;;
6997;SDS011;3539;47.982;12.238;2023-04-22T10:24:15;1.07;;;1.00;;
6997;SDS011;3539;47.982;12.238;2023-04-22T10:26:46;1.20;;;1.10;;
6997;SDS011;3539;47.982;12.238;2023-04-22T10:29:15;2.13;;;0.90;;
6997;SDS011;3539;47.982;12.238;2023-04-22T10:31:42;1.00;;;0.87;;
6997;SDS011;3539;47.982;12.238;2023-04-22T10:34:11;1.10;;;1.00;;
6997;SDS011;3539;47.982;12.238;2023-04-22T10:39:31;0.90;;;0.90;;
6997;SDS011;3539;47.982;12.238;2023-04-22T10:42:06;0.90;;;0.90;;
6997;SDS011;3539;47.982;12.238;2023-04-22T10:44:45;1.07;;;0.97;;
6997;SDS011;3539;47.982;12.238;2023-04-22T10:47:23;1.10;;;0.90;;
6997;SDS011;3539;47.982;12.238;2023-04-22T10:49:52;0.90;;;0.90;;
6997;SDS011;3539;47.982;12.238;2023-04-22T10:52:34;0.80;;;0.80;;
6997;SDS011;3539;47.982;12.238;2023-04-22T10:55:01;0.90;;;0.90;;
6997;SDS011;3539;47.982;12.238;2023-04-22T10:57:33;0.70;;;0.70;;
6997;SDS011;3539;47.982;12.238;2023-04-22T11:05:57;0.80;;;0.80;;
6997;SDS011;3539;47.982;12.238;2023-04-22T11:08:40;1.70;;;0.83;;
6997;SDS011;3539;47.982;12.238;2023-04-22T11:11:10;0.70;;;0.70;;
6997;SDS011;3539;47.982;12.238;2023-04-22T11:13:38;0.80;;;0.80;;
6997;SDS011;3539;47.982;12.238;2023-04-22T11:16:06;0.60;;;0.60;;
6997;SDS011;3539;47.982;12.238;2023-04-22T11:18:33;0.80;;;0.70;;
6997;SDS011;3539;47.982;12.238;2023-04-22T11:21:03;1.23;;;0.85;;
6997;SDS011;3539;47.982;12.238;2023-04-22T11:23:30;1.45;;;0.80;;
6997;SDS011;3539;47.982;12.238;2023-04-22T11:25:58;1.55;;;1.02;;
6997;SDS011;3539;47.982;12.238;2023-04-22T11:28:25;0.85;;;0.85;;
6997;SDS011;3539;47.982;12.238;2023-04-22T11:30:52;1.23;;;1.00;;
6997;SDS011;3539;47.982;12.238;2023-04-22T11:33:26;0.98;;;0.80;;
6997;SDS011;3539;47.982;12.238;2023-04-22T11:35:53;1.20;;;0.90;;
6997;SDS011;3539;47.982;12.238;2023-04-22T11:38:23;0.88;;;0.70;;
6997;SDS011;3539;47.982;12.238;2023-04-22T11:40:50;0.90;;;0.90;;
6997;SDS011;3539;47.982;12.238;2023-04-22T11:43:17;0.70;;;0.70;;
6997;SDS011;3539;47.982;12.238;2023-04-22T11:45:43;0.63;;;0.63;;
6997;SDS011;3539;47.982;12.238;2023-04-22T11:48:10;0.70;;;0.70;;
6997;SDS011;3539;47.982;12.238;2023-04-22T11:50:40;0.57;;;0.57;;
6997;SDS011;3539;47.982;12.238;2023-04-22T11:53:17;0.60;;;0.60;;
6997;SDS011;3539;47.982;12.238;2023-04-22T11:55:48;0.68;;;0.68;;
6997;SDS011;3539;47.982;12.238;2023-04-22T11:58:16;1.88;;;0.70;;
6997;SDS011;3539;47.982;12.238;2023-04-22T12:00:45;1.27;;;0.60;;
6997;SDS011;3539;47.982;12.238;2023-04-22T12:03:12;0.50;;;0.50;;
6997;SDS011;3539;47.982;12.238;2023-04-22T12:05:41;0.60;;;0.60;;
6997;SDS011;3539;47.982;12.238;2023-04-22T12:08:09;0.80;;;0.80;;
6997;SDS011;3539;47.982;12.238;2023-04-22T12:10:43;0.60;;;0.60;;
6997;SDS011;3539;47.982;12.238;2023-04-22T12:13:19;0.60;;;0.60;;
6997;SDS011;3539;47.982;12.238;2023-04-22T12:15:46;0.70;;;0.70;;
6997;SDS011;3539;47.982;12.238;2023-04-22T12:18:14;0.43;;;0.43;;
6997;SDS011;3539;47.982;12.238;2023-04-22T12:20:41;1.80;;;0.70;;
6997;SDS011;3539;47.982;12.238;2023-04-22T12:23:11;0.50;;;0.50;;
6997;SDS011;3539;47.982;12.238;2023-04-22T12:25:39;0.57;;;0.57;;
6997;SDS011;3539;47.982;12.238;2023-04-22T12:28:08;1.03;;;0.80;;
6997;SDS011;3539;47.982;12.238;2023-04-22T12:30:35;0.60;;;0.60;;
6997;SDS011;3539;47.982;12.238;2023-04-22T12:33:02;0.70;;;0.70;;
6997;SDS011;3539;47.982;12.238;2023-04-22T12:35:30;0.83;;;0.83;;
6997;SDS011;3539;47.982;12.238;2023-04-22T12:37:57;0.80;;;0.80;;
6997;SDS011;3539;47.982;12.238;2023-04-22T12:40:24;0.77;;;0.77;;
6997;SDS011;3539;47.982;12.238;2023-04-22T12:42:51;2.17;;;0.90;;
6997;SDS011;3539;47.982;12.238;2023-04-22T12:45:19;1.25;;;0.90;;
6997;SDS011;3539;47.982;12.238;2023-04-22T12:47:49;1.27;;;0.95;;
6997;SDS011;3539;47.982;12.238;2023-04-22T12:50:18;2.60;;;0.80;;
6997;SDS011;3539;47.982;12.238;2023-04-22T12:52:45;4.13;;;1.10;;
6997;SDS011;3539;47.982;12.238;2023-04-22T12:55:12;6.53;;;1.48;;
6997;SDS011;3539;47.982;12.238;2023-04-22T12:57:39;1.65;;;1.13;;
6997;SDS011;3539;47.982;12.238;2023-04-22T13:00:06;3.78;;;1.27;;
6997;SDS011;3539;47.982;12.238;2023-04-22T13:02:40;0.95;;;0.88;;
6997;SDS011;3539;47.982;12.238;2023-04-22T13:05:07;1.45;;;1.17;;
6997;SDS011;3539;47.982;12.238;2023-04-22T13:07:35;1.40;;;0.88;;
6997;SDS011;3539;47.982;12.238;2023-04-22T13:10:02;2.35;;;1.20;;
6997;SDS011;3539;47.982;12.238;2023-04-22T13:12:29;1.20;;;1.10;;
6997;SDS011;3539;47.982;12.238;2023-04-22T13:14:56;1.48;;;1.00;;
6997;SDS011;3539;47.982;12.238;2023-04-22T13:17:23;1.40;;;0.97;;
6997;SDS011;3539;47.982;12.238;2023-04-22T13:19:52;0.90;;;0.90;;
6997;SDS011;3539;47.982;12.238;2023-04-22T13:22:20;1.03;;;0.80;;
6997;SDS011;3539;47.982;12.238;2023-04-22T13:24:47;2.63;;;1.00;;
6997;SDS011;3539;47.982;12.238;2023-04-22T13:27:14;1.20;;;1.10;;
6997;SDS011;3539;47.982;12.238;2023-04-22T13:29:41;4.00;;;1.20;;
6997;SDS011;3539;47.982;12.238;2023-04-22T13:32:08;1.33;;;1.10;;
6997;SDS011;3539;47.982;12.238;2023-04-22T13:34:35;1.20;;;1.10;;
6997;SDS011;3539;47.982;12.238;2023-04-22T13:40:12;2.43;;;0.90;;
6997;SDS011;3539;47.982;12.238;2023-04-22T13:42:39;2.50;;;0.90;;
6997;SDS011;3539;47.982;12.238;2023-04-22T13:45:07;1.03;;;0.93;;
6997;SDS011;3539;47.982;12.238;2023-04-22T13:47:34;1.47;;;1.10;;
6997;SDS011;3539;47.982;12.238;2023-04-22T14:13:36;1.30;;;1.20;;
6997;SDS011;3539;47.982;12.238;2023-04-22T14:16:03;2.20;;;1.40;;
6997;SDS011;3539;47.982;12.238;2023-04-22T14:18:32;1.87;;;1.13;;
6997;SDS011;3539;47.982;12.238;2023-04-22T14:21:01;1.90;;;1.17;;
6997;SDS011;3539;47.982;12.238;2023-04-22T14:23:29;2.53;;;1.30;;
6997;SDS011;3539;47.982;12.238;2023-04-22T14:25:56;1.87;;;1.20;;
6997;SDS011;3539;47.982;12.238;2023-04-22T14:28:22;1.93;;;1.20;;
6997;SDS011;3539;47.982;12.238;2023-04-22T14:30:51;2.60;;;1.33;;
6997;SDS011;3539;47.982;12.238;2023-04-22T14:33:18;2.07;;;1.17;;
6997;SDS011;3539;47.982;12.238;2023-04-22T14:35:44;1.53;;;1.13;;
6997;SDS011;3539;47.982;12.238;2023-04-22T14:38:11;1.20;;;1.10;;
6997;SDS011;3539;47.982;12.238;2023-04-22T14:40:38;1.63;;;1.23;;
6997;SDS011;3539;47.982;12.238;2023-04-22T14:43:05;1.83;;;1.33;;
6997;SDS011;3539;47.982;12.238;2023-04-22T14:45:32;1.40;;;1.30;;
6997;SDS011;3539;47.982;12.238;2023-04-22T14:48:00;1.60;;;1.20;;
6997;SDS011;3539;47.982;12.238;2023-04-22T14:50:27;1.30;;;1.20;;
6997;SDS011;3539;47.982;12.238;2023-04-22T14:52:54;3.73;;;1.30;;
6997;SDS011;3539;47.982;12.238;2023-04-22T14:55:21;2.60;;;1.10;;
6997;SDS011;3539;47.982;12.238;2023-04-22T14:57:48;8.20;;;1.40;;
6997;SDS011;3539;47.982;12.238;2023-04-22T15:00:15;1.70;;;1.13;;
6997;SDS011;3539;47.982;12.238;2023-04-22T15:02:42;2.17;;;1.20;;
6997;SDS011;3539;47.982;12.238;2023-04-22T15:05:11;1.30;;;1.07;;
6997;SDS011;3539;47.982;12.238;2023-04-22T15:07:37;1.77;;;1.00;;
6997;SDS011;3539;47.982;12.238;2023-04-22T15:10:04;1.20;;;1.10;;
6997;SDS011;3539;47.982;12.238;2023-04-22T15:12:32;1.67;;;1.00;;
6997;SDS011;3539;47.982;12.238;2023-04-22T15:14:59;1.60;;;1.13;;
6997;SDS011;3539;47.982;12.238;2023-04-22T15:17:25;1.90;;;1.23;;
6997;SDS011;3539;47.982;12.238;2023-04-22T15:19:54;2.50;;;1.30;;
6997;SDS011;3539;47.982;12.238;2023-04-22T15:22:23;1.17;;;1.07;;
6997;SDS011;3539;47.982;12.238;2023-04-22T15:24:50;2.00;;;1.43;;
6997;SDS011;3539;47.982;12.238;2023-04-22T15:27:17;1.77;;;1.23;;
6997;SDS011;3539;47.982;12.238;2023-04-22T15:29:44;1.97;;;1.30;;
6997;SDS011;3539;47.982;12.238;2023-04-22T15:32:11;1.50;;;1.33;;
6997;SDS011;3539;47.982;12.238;2023-04-22T15:34:38;1.43;;;1.30;;
6997;SDS011;3539;47.982;12.238;2023-04-22T15:37:05;1.20;;;1.10;;
6997;SDS011;3539;47.982;12.238;2023-04-22T15:39:33;2.40;;;1.30;;